Time;durP1;ratioP1;P1;durP2;ratioP2;P2;SDS_P1;SDS_P2;PMS_P1;PMS_P2;Temp;Humidity;BMP_temperature;BMP_pressure;BME280_temperature;BME280_humidity;BME280_pressure;Samples;Min_cycle;Max_cycle;Signal;HPM_P1;HPM_P2
2023/01/20 00:00:14;;;;;;;17.60;9.17;;;0.90;99.90;;;;;;4195902;28;20483;-77
2023/01/20 00:02:16;;;;;;;20.57;9.50;;;0.90;99.90;;;;;;4195935;28;20446;-77
2023/01/20 00:04:18;;;;;;;21.63;10.07;;;0.80;99.90;;;;;;4187655;28;20569;-77
2023/01/20 00:06:21;;;;;;;21.30;10.17;;;0.90;99.90;;;;;;4192835;28;20567;-78
2023/01/20 00:08:23;;;;;;;18.33;9.10;;;0.90;99.90;;;;;;4193071;28;20451;-77
2023/01/20 00:10:25;;;;;;;19.33;8.77;;;0.90;99.90;;;;;;4193491;28;21014;-78
2023/01/20 00:12:30;;;;;;;21.20;10.33;;;0.90;99.90;;;;;;4190498;28;20451;-77
2023/01/20 00:14:33;;;;;;;23.93;10.83;;;0.90;99.90;;;;;;4198676;28;20481;-77
2023/01/20 00:16:35;;;;;;;22.00;10.70;;;1.00;99.90;;;;;;4198785;28;20458;-77
2023/01/20 00:18:38;;;;;;;28.03;12.13;;;1.40;99.90;;;;;;4198675;28;20447;-77
2023/01/20 00:20:40;;;;;;;26.10;11.60;;;1.70;99.90;;;;;;4199740;28;20452;-77
2023/01/20 00:22:42;;;;;;;24.40;10.77;;;0.90;99.90;;;;;;4199647;28;21162;-77
2023/01/20 00:24:43;;;;;;;22.67;10.67;;;0.90;99.90;;;;;;4194151;28;20489;-77
2023/01/20 00:26:45;;;;;;;26.50;11.93;;;0.90;99.90;;;;;;4196227;28;21255;-77
2023/01/20 00:28:48;;;;;;;26.43;10.80;;;0.90;99.90;;;;;;4190823;28;20546;-77
2023/01/20 00:30:51;;;;;;;22.07;10.07;;;0.90;99.90;;;;;;4189421;28;20462;-77
2023/01/20 00:32:53;;;;;;;25.10;10.53;;;0.90;99.90;;;;;;4191774;28;20945;-77
2023/01/20 00:34:55;;;;;;;21.57;9.77;;;0.90;99.90;;;;;;4197732;28;20489;-77
2023/01/20 00:36:57;;;;;;;18.37;9.17;;;0.90;99.90;;;;;;4192143;28;20537;-77
2023/01/20 00:39:00;;;;;;;22.00;9.90;;;0.90;99.90;;;;;;4197556;28;20501;-77
2023/01/20 00:41:02;;;;;;;24.77;9.90;;;0.90;99.90;;;;;;4195977;28;20501;-77
2023/01/20 00:43:04;;;;;;;25.13;10.53;;;0.90;99.90;;;;;;4193789;28;20489;-77
2023/01/20 00:45:07;;;;;;;21.77;10.00;;;0.90;99.90;;;;;;4193483;28;20455;-77
2023/01/20 00:47:10;;;;;;;21.67;10.83;;;0.90;99.90;;;;;;4194035;28;20896;-77
2023/01/20 00:49:13;;;;;;;23.60;9.87;;;0.90;99.90;;;;;;4194136;28;20466;-77
2023/01/20 00:51:15;;;;;;;20.33;9.40;;;0.90;99.90;;;;;;4193696;28;20466;-77
2023/01/20 00:53:17;;;;;;;20.67;9.37;;;0.90;99.90;;;;;;4197566;28;20475;-77
2023/01/20 00:55:19;;;;;;;21.20;9.07;;;0.90;99.90;;;;;;4187442;28;20486;-77
2023/01/20 00:57:21;;;;;;;19.83;9.17;;;0.90;99.90;;;;;;4195780;28;20494;-77
2023/01/20 00:59:23;;;;;;;22.13;9.67;;;0.90;99.90;;;;;;4208958;28;20539;-77
2023/01/20 01:01:25;;;;;;;24.57;10.30;;;0.90;99.90;;;;;;4211244;28;20444;-77
2023/01/20 01:03:28;;;;;;;21.63;9.90;;;0.90;99.90;;;;;;4197679;28;20505;-77
2023/01/20 01:05:30;;;;;;;25.97;10.60;;;1.00;99.90;;;;;;4191818;28;20452;-77
2023/01/20 01:07:32;;;;;;;24.13;9.67;;;0.90;99.90;;;;;;4194951;28;21038;-76
2023/01/20 01:09:37;;;;;;;24.27;10.13;;;0.90;99.90;;;;;;4195690;28;20462;-77
2023/01/20 01:11:39;;;;;;;18.10;8.77;;;0.90;99.90;;;;;;4194637;28;20446;-77
2023/01/20 01:13:41;;;;;;;23.53;10.27;;;0.90;99.90;;;;;;4194289;28;20500;-77
2023/01/20 01:15:48;;;;;;;23.53;9.30;;;0.90;99.90;;;;;;4196693;28;20442;-78
2023/01/20 01:17:50;;;;;;;27.03;9.93;;;0.90;99.90;;;;;;4198947;28;20466;-78
2023/01/20 01:19:54;;;;;;;17.57;8.40;;;0.90;99.90;;;;;;4194772;28;20443;-78
2023/01/20 01:21:56;;;;;;;21.93;9.47;;;0.90;99.90;;;;;;4201462;28;20506;-78
2023/01/20 01:23:58;;;;;;;17.27;8.53;;;0.90;99.90;;;;;;4213332;28;20550;-78
2023/01/20 01:26:00;;;;;;;24.27;9.17;;;0.80;99.90;;;;;;4196526;28;20495;-78
2023/01/20 01:28:03;;;;;;;19.40;8.87;;;1.00;99.90;;;;;;4197976;28;20552;-78
2023/01/20 01:30:06;;;;;;;20.03;8.23;;;0.90;99.90;;;;;;4197909;28;20448;-78
2023/01/20 01:32:08;;;;;;;24.00;9.83;;;0.90;99.90;;;;;;4198056;28;20469;-78
2023/01/20 01:34:09;;;;;;;21.13;9.17;;;0.90;99.90;;;;;;4198140;28;20910;-78
2023/01/20 01:36:17;;;;;;;19.60;9.43;;;0.80;99.90;;;;;;4204386;28;20886;-78
2023/01/20 01:38:19;;;;;;;25.50;9.50;;;0.80;99.90;;;;;;4196354;28;20497;-78
2023/01/20 01:40:21;;;;;;;19.07;9.03;;;0.80;99.90;;;;;;4198229;28;20897;-78
2023/01/20 01:42:25;;;;;;;19.37;8.97;;;0.90;99.90;;;;;;4197061;28;21115;-78
2023/01/20 01:44:27;;;;;;;18.77;8.97;;;0.80;99.90;;;;;;4198559;28;21025;-78
2023/01/20 01:46:30;;;;;;;17.60;8.43;;;1.10;99.90;;;;;;4195943;28;20494;-78
2023/01/20 01:48:38;;;;;;;19.07;9.10;;;0.80;99.90;;;;;;4196198;28;20474;-78
2023/01/20 01:50:45;;;;;;;16.60;7.80;;;0.80;99.90;;;;;;4193781;28;20558;-78
2023/01/20 01:52:52;;;;;;;19.83;8.40;;;0.80;99.90;;;;;;4198190;28;20478;-78
2023/01/20 01:54:57;;;;;;;17.67;7.73;;;0.70;99.90;;;;;;4195298;28;20913;-78
2023/01/20 01:57:02;;;;;;;21.23;8.13;;;0.90;99.90;;;;;;4193435;28;20458;-78
2023/01/20 01:59:05;;;;;;;17.37;8.07;;;0.80;99.90;;;;;;4192410;28;20457;-78
2023/01/20 02:01:07;;;;;;;17.23;8.17;;;0.80;99.90;;;;;;4196809;28;20495;-78
2023/01/20 02:03:11;;;;;;;17.60;8.03;;;0.70;99.90;;;;;;4196833;28;20548;-78
2023/01/20 02:05:15;;;;;;;20.33;8.60;;;0.80;99.90;;;;;;4195664;28;20461;-77
2023/01/20 02:07:20;;;;;;;19.63;8.40;;;0.70;99.90;;;;;;4194546;28;20481;-77
2023/01/20 02:09:25;;;;;;;16.60;7.73;;;0.80;99.90;;;;;;4194591;28;20827;-77
2023/01/20 02:11:27;;;;;;;18.57;8.83;;;0.80;99.90;;;;;;4195950;28;20549;-77
2023/01/20 02:13:29;;;;;;;16.87;8.50;;;0.80;99.90;;;;;;4197063;28;20948;-77
2023/01/20 02:15:38;;;;;;;16.33;8.13;;;0.80;99.90;;;;;;4193746;28;20490;-77
2023/01/20 02:17:47;;;;;;;16.90;8.13;;;0.90;99.90;;;;;;4194620;28;20489;-77
2023/01/20 02:20:28;;;;;;;19.87;8.07;;;0.70;99.90;;;;;;4194849;28;20995;-77
2023/01/20 02:22:37;;;;;;;18.83;8.63;;;0.80;99.90;;;;;;4190486;28;21325;-77
2023/01/20 02:25:12;;;;;;;15.57;8.10;;;0.80;99.90;;;;;;4191219;28;20575;-77
2023/01/20 02:27:26;;;;;;;17.57;8.40;;;0.70;99.90;;;;;;4191179;28;20528;-77
2023/01/20 02:30:22;;;;;;;20.50;8.70;;;0.70;99.90;;;;;;4194903;28;20509;-77
2023/01/20 02:32:37;;;;;;;15.97;7.60;;;0.70;99.90;;;;;;4098134;28;20464;-77
2023/01/20 02:34:44;;;;;;;19.13;8.40;;;0.70;99.90;;;;;;4185363;28;20533;-77
2023/01/20 02:36:50;;;;;;;23.10;9.13;;;1.10;99.90;;;;;;4198720;28;20557;-77
2023/01/20 02:38:57;;;;;;;22.03;9.37;;;0.80;99.90;;;;;;4200666;28;20980;-77
2023/01/20 02:41:09;;;;;;;19.93;7.93;;;0.70;99.90;;;;;;4201380;28;20453;-75
2023/01/20 02:43:19;;;;;;;15.37;8.33;;;0.80;99.90;;;;;;4195264;28;20493;-77
2023/01/20 02:45:25;;;;;;;18.73;8.23;;;0.70;99.90;;;;;;4199565;28;20450;-77
2023/01/20 02:47:35;;;;;;;16.63;9.13;;;0.70;99.90;;;;;;4194252;28;20582;-77
2023/01/20 02:49:41;;;;;;;22.70;9.53;;;0.70;99.90;;;;;;4188736;28;20470;-78
2023/01/20 02:51:49;;;;;;;19.50;9.13;;;0.70;99.90;;;;;;4195388;28;20829;-77
2023/01/20 02:53:56;;;;;;;18.50;8.53;;;0.70;99.90;;;;;;4196252;28;20480;-77
2023/01/20 02:55:58;;;;;;;18.80;9.20;;;0.70;99.90;;;;;;4196985;28;20554;-77
2023/01/20 02:58:04;;;;;;;18.40;8.73;;;0.70;99.90;;;;;;4194014;28;20492;-77
2023/01/20 03:00:12;;;;;;;16.10;8.33;;;0.70;99.90;;;;;;4198469;28;20471;-77
2023/01/20 03:02:17;;;;;;;20.37;9.17;;;0.70;99.90;;;;;;4194649;28;20562;-77
2023/01/20 03:04:26;;;;;;;18.33;9.00;;;0.70;99.90;;;;;;4196453;28;20497;-77
2023/01/20 03:06:33;;;;;;;14.27;7.53;;;0.70;99.90;;;;;;4195433;28;20464;-77
2023/01/20 03:08:37;;;;;;;19.03;8.73;;;0.70;99.90;;;;;;4193421;28;20544;-77
2023/01/20 03:10:42;;;;;;;18.80;8.53;;;0.70;99.90;;;;;;4212293;28;20506;-77
2023/01/20 03:12:48;;;;;;;20.43;8.93;;;0.70;99.90;;;;;;4195550;28;20493;-77
2023/01/20 03:14:51;;;;;;;20.20;9.27;;;0.80;99.90;;;;;;4212676;28;20484;-77
2023/01/20 03:16:53;;;;;;;17.83;8.20;;;0.70;99.90;;;;;;4196485;28;20589;-77
2023/01/20 03:18:56;;;;;;;19.40;8.37;;;0.70;99.90;;;;;;4189017;28;21001;-77
2023/01/20 03:21:02;;;;;;;16.37;8.20;;;0.70;99.90;;;;;;4196761;28;20455;-77
2023/01/20 03:23:07;;;;;;;16.67;8.63;;;0.70;99.90;;;;;;4194807;28;20474;-77
2023/01/20 03:25:10;;;;;;;21.53;9.33;;;0.70;99.90;;;;;;4196128;28;20827;-77
2023/01/20 03:27:13;;;;;;;20.90;8.10;;;0.70;99.90;;;;;;4194871;28;20575;-77
2023/01/20 03:29:17;;;;;;;25.03;9.70;;;0.70;99.90;;;;;;4192976;28;20491;-77
2023/01/20 03:31:24;;;;;;;17.50;8.50;;;0.70;99.90;;;;;;4191774;28;20453;-77
2023/01/20 03:33:26;;;;;;;19.73;8.90;;;0.70;99.90;;;;;;4194947;28;20510;-77
2023/01/20 03:35:29;;;;;;;18.63;8.53;;;0.70;99.90;;;;;;4195717;28;20454;-77
2023/01/20 03:37:33;;;;;;;18.37;8.90;;;0.70;99.90;;;;;;4194207;28;21201;-77
2023/01/20 03:39:38;;;;;;;16.03;8.43;;;0.70;99.90;;;;;;4210639;28;20493;-77
2023/01/20 03:41:50;;;;;;;17.70;8.63;;;0.70;99.90;;;;;;4202765;28;20465;-77
2023/01/20 03:43:58;;;;;;;15.80;7.50;;;0.70;99.90;;;;;;4191908;28;20469;-77
2023/01/20 03:46:05;;;;;;;16.03;8.00;;;0.70;99.90;;;;;;4186143;28;21017;-77
2023/01/20 03:48:13;;;;;;;19.57;9.20;;;0.70;99.90;;;;;;4196432;28;21289;-77
2023/01/20 03:50:25;;;;;;;14.97;7.30;;;0.90;99.90;;;;;;4195973;28;20549;-77
2023/01/20 03:52:34;;;;;;;16.53;7.90;;;0.70;99.90;;;;;;4192261;28;20524;-77
2023/01/20 03:54:42;;;;;;;19.47;9.07;;;0.70;99.90;;;;;;4191955;28;20573;-77
2023/01/20 03:56:52;;;;;;;19.03;9.00;;;0.70;99.90;;;;;;4200509;28;20613;-77
2023/01/20 03:58:57;;;;;;;20.13;9.30;;;0.70;99.90;;;;;;4206238;28;20533;-77
2023/01/20 04:01:06;;;;;;;16.10;8.23;;;0.70;99.90;;;;;;4190624;28;20505;-77
2023/01/20 04:03:26;;;;;;;22.57;9.17;;;0.70;99.90;;;;;;4193391;28;20456;-77
2023/01/20 04:05:29;;;;;;;25.83;10.00;;;1.10;99.90;;;;;;4196305;28;20454;-77
2023/01/20 04:07:33;;;;;;;22.23;9.10;;;0.70;99.90;;;;;;4188810;28;20471;-77
2023/01/20 04:09:39;;;;;;;18.90;8.50;;;0.70;99.90;;;;;;4194576;28;20882;-77
2023/01/20 04:11:42;;;;;;;17.27;8.70;;;0.70;99.90;;;;;;4211570;28;20458;-77
2023/01/20 04:13:44;;;;;;;19.50;8.93;;;0.70;99.90;;;;;;4209782;28;20568;-77
2023/01/20 04:15:47;;;;;;;20.37;8.73;;;0.70;99.90;;;;;;4194985;28;20454;-77
2023/01/20 04:17:49;;;;;;;19.03;8.83;;;0.70;99.90;;;;;;4194810;28;20546;-77
2023/01/20 04:19:51;;;;;;;27.53;10.30;;;0.70;99.90;;;;;;4192255;28;20828;-77
2023/01/20 04:22:00;;;;;;;23.40;9.30;;;0.70;99.90;;;;;;4194136;28;20451;-77
2023/01/20 04:24:08;;;;;;;22.60;9.30;;;0.70;99.90;;;;;;4193113;28;20476;-77
2023/01/20 04:26:10;;;;;;;24.57;9.90;;;0.70;99.90;;;;;;4193200;28;21141;-77
2023/01/20 04:28:12;;;;;;;22.70;9.50;;;0.70;99.90;;;;;;4193222;28;20529;-77
2023/01/20 04:30:15;;;;;;;21.30;9.03;;;0.70;99.90;;;;;;4195768;28;20451;-77
2023/01/20 04:32:17;;;;;;;17.50;8.90;;;0.70;99.90;;;;;;4195395;28;20481;-77
2023/01/20 04:34:19;;;;;;;22.50;9.00;;;0.70;99.90;;;;;;4192285;28;20479;-77
2023/01/20 04:36:20;;;;;;;21.37;9.10;;;0.70;99.90;;;;;;4194381;28;20457;-77
2023/01/20 04:38:22;;;;;;;24.53;9.33;;;0.70;99.90;;;;;;4194426;28;20461;-77
2023/01/20 04:40:26;;;;;;;18.00;8.57;;;0.70;99.90;;;;;;4194475;28;20501;-77
2023/01/20 04:42:28;;;;;;;17.27;7.67;;;1.50;99.90;;;;;;4206395;28;20935;-77
2023/01/20 04:44:30;;;;;;;17.03;8.53;;;0.70;99.90;;;;;;4202857;28;20527;-77
2023/01/20 04:46:32;;;;;;;19.20;9.00;;;0.30;99.90;;;;;;4190151;28;20468;-77
2023/01/20 04:48:34;;;;;;;21.20;9.20;;;0.70;99.90;;;;;;4208962;28;20575;-77
2023/01/20 04:50:39;;;;;;;25.03;9.43;;;0.70;99.90;;;;;;4208022;28;20466;-77
2023/01/20 04:52:41;;;;;;;18.87;8.67;;;0.70;99.90;;;;;;4195916;28;20466;-77
2023/01/20 04:54:42;;;;;;;23.27;9.83;;;0.70;99.90;;;;;;4194656;28;20509;-77
2023/01/20 04:56:48;;;;;;;20.57;8.60;;;0.70;99.90;;;;;;4193641;28;20451;-77
2023/01/20 04:58:50;;;;;;;18.73;8.83;;;0.70;99.90;;;;;;4193723;28;20481;-77
2023/01/20 05:00:52;;;;;;;20.97;8.70;;;0.70;99.90;;;;;;4193024;28;21339;-77
2023/01/20 05:02:57;;;;;;;16.67;8.00;;;0.70;99.90;;;;;;4194351;28;20467;-77
2023/01/20 05:04:59;;;;;;;16.57;7.90;;;0.70;99.90;;;;;;4192070;28;20492;-77
2023/01/20 05:07:01;;;;;;;16.37;8.37;;;0.70;99.90;;;;;;4193221;28;20462;-77
2023/01/20 05:09:03;;;;;;;19.93;9.03;;;0.70;99.90;;;;;;4193289;28;20476;-77
2023/01/20 05:11:06;;;;;;;16.63;8.17;;;0.70;99.90;;;;;;4194725;28;20452;-78
2023/01/20 05:13:09;;;;;;;19.77;8.63;;;1.00;99.90;;;;;;4191165;28;20442;-78
2023/01/20 05:15:11;;;;;;;15.43;7.87;;;0.70;99.90;;;;;;4189107;28;20461;-78
2023/01/20 05:17:13;;;;;;;24.70;8.97;;;0.70;99.90;;;;;;4195732;28;20486;-78
2023/01/20 05:19:15;;;;;;;20.40;9.17;;;0.70;99.90;;;;;;4193506;28;20454;-78
2023/01/20 05:21:17;;;;;;;20.77;8.90;;;0.70;99.90;;;;;;4194376;28;20462;-78
2023/01/20 05:23:19;;;;;;;17.07;8.90;;;0.70;99.90;;;;;;4192996;28;20442;-78
2023/01/20 05:25:21;;;;;;;21.50;9.83;;;0.70;99.90;;;;;;4188100;28;20503;-77
2023/01/20 05:27:23;;;;;;;28.43;10.87;;;0.70;99.90;;;;;;4207575;28;20537;-78
2023/01/20 05:29:27;;;;;;;23.93;10.00;;;0.70;99.90;;;;;;4194149;28;20480;-78
2023/01/20 05:31:29;;;;;;;24.03;9.87;;;0.70;99.90;;;;;;4189682;28;20971;-78
2023/01/20 05:33:31;;;;;;;21.27;9.83;;;0.70;99.90;;;;;;4194569;28;20479;-78
2023/01/20 05:35:33;;;;;;;22.90;10.07;;;0.90;99.90;;;;;;4188250;28;20544;-78
2023/01/20 05:37:35;;;;;;;24.30;9.17;;;0.70;99.90;;;;;;4194897;28;20937;-78
2023/01/20 05:39:37;;;;;;;21.17;9.93;;;0.80;99.90;;;;;;4192953;28;20459;-78
2023/01/20 05:41:39;;;;;;;24.37;10.57;;;0.70;99.90;;;;;;4193790;28;20504;-78
2023/01/20 05:43:41;;;;;;;22.60;10.47;;;0.70;99.90;;;;;;4194436;28;20929;-78
2023/01/20 05:45:45;;;;;;;24.37;11.03;;;0.70;99.90;;;;;;4192597;28;20498;-77
2023/01/20 05:47:47;;;;;;;20.27;10.23;;;0.70;99.90;;;;;;4189284;28;20545;-78
2023/01/20 05:49:49;;;;;;;19.97;9.53;;;0.70;99.90;;;;;;4196773;28;20484;-77
2023/01/20 05:51:51;;;;;;;24.57;10.10;;;0.70;99.90;;;;;;4198462;28;20475;-78
2023/01/20 05:53:53;;;;;;;19.83;9.97;;;0.70;99.90;;;;;;4196245;28;20524;-78
2023/01/20 05:56:02;;;;;;;21.93;9.07;;;0.60;99.90;;;;;;4197104;28;20451;-78
2023/01/20 05:58:04;;;;;;;20.57;9.67;;;0.60;99.90;;;;;;4198603;28;20449;-78
2023/01/20 06:00:08;;;;;;;21.63;9.87;;;0.60;99.90;;;;;;4198492;28;20467;-78
2023/01/20 06:02:12;;;;;;;22.00;9.70;;;0.60;99.90;;;;;;4199733;28;20958;-79
2023/01/20 06:04:14;;;;;;;20.23;9.23;;;0.60;99.90;;;;;;4192272;28;20485;-78
2023/01/20 06:06:17;;;;;;;19.93;9.17;;;0.60;99.90;;;;;;4196005;28;21019;-78
2023/01/20 06:08:20;;;;;;;21.93;10.03;;;0.60;99.90;;;;;;4197025;28;20486;-78
2023/01/20 06:10:24;;;;;;;21.80;10.60;;;0.60;99.90;;;;;;4197776;28;20476;-79
2023/01/20 06:12:26;;;;;;;21.40;9.93;;;0.60;99.90;;;;;;4198562;28;21329;-79
2023/01/20 06:14:28;;;;;;;20.77;10.10;;;0.60;99.90;;;;;;4197660;28;21285;-78
2023/01/20 06:16:29;;;;;;;23.07;10.50;;;0.60;99.90;;;;;;4198730;28;20457;-78
2023/01/20 06:18:33;;;;;;;27.33;10.93;;;0.60;99.90;;;;;;4190182;28;20451;-78
2023/01/20 06:20:35;;;;;;;21.90;9.50;;;0.60;99.90;;;;;;4214914;28;20467;-78
2023/01/20 06:22:37;;;;;;;23.83;10.43;;;0.60;99.90;;;;;;4203683;28;20446;-78
2023/01/20 06:24:40;;;;;;;22.80;10.33;;;0.60;99.90;;;;;;4202206;28;20464;-79
2023/01/20 06:26:42;;;;;;;19.97;9.80;;;0.60;99.90;;;;;;4196752;28;20449;-78
2023/01/20 06:28:44;;;;;;;23.20;10.83;;;0.60;99.90;;;;;;4216292;28;20484;-78
2023/01/20 06:30:46;;;;;;;23.77;10.13;;;0.60;99.90;;;;;;4204109;28;20450;-78
2023/01/20 06:32:48;;;;;;;20.23;9.57;;;0.60;99.90;;;;;;4202068;28;20457;-78
2023/01/20 06:34:52;;;;;;;18.40;9.00;;;0.60;99.90;;;;;;4201224;28;20516;-78
2023/01/20 06:36:54;;;;;;;31.27;11.90;;;0.60;99.90;;;;;;4203471;28;20469;-78
2023/01/20 06:38:56;;;;;;;22.40;10.27;;;0.60;99.90;;;;;;4201865;28;20469;-78
2023/01/20 06:40:59;;;;;;;22.83;9.77;;;0.60;99.90;;;;;;4202743;28;20471;-78
2023/01/20 06:43:02;;;;;;;17.40;9.70;;;0.60;99.90;;;;;;4201719;28;20461;-78
2023/01/20 06:45:04;;;;;;;19.57;9.50;;;0.50;99.90;;;;;;4200131;28;20469;-79
2023/01/20 06:47:06;;;;;;;19.87;9.93;;;0.70;99.90;;;;;;4205397;28;20453;-79
2023/01/20 06:49:08;;;;;;;18.57;8.73;;;0.50;99.90;;;;;;4204651;28;20522;-78
2023/01/20 06:51:13;;;;;;;24.10;10.30;;;0.50;99.90;;;;;;4205149;28;20520;-78
2023/01/20 06:53:15;;;;;;;22.63;10.30;;;0.50;99.90;;;;;;4204266;28;20938;-78
2023/01/20 06:55:17;;;;;;;23.93;10.40;;;0.50;99.90;;;;;;4200865;28;20461;-78
2023/01/20 06:57:19;;;;;;;21.20;9.13;;;0.50;99.90;;;;;;4197840;28;20537;-78
2023/01/20 06:59:21;;;;;;;23.00;9.43;;;1.00;99.90;;;;;;4197118;28;20508;-78
2023/01/20 07:01:24;;;;;;;20.90;9.43;;;0.50;99.90;;;;;;4194688;28;21065;-78
2023/01/20 07:03:26;;;;;;;21.07;9.60;;;0.50;99.90;;;;;;4193069;28;20489;-78
2023/01/20 07:05:28;;;;;;;19.93;9.57;;;0.50;99.90;;;;;;4198824;28;20446;-78
2023/01/20 07:07:32;;;;;;;19.03;10.07;;;0.80;99.90;;;;;;4197092;28;20466;-78
2023/01/20 07:09:36;;;;;;;17.77;9.30;;;0.50;99.90;;;;;;4195953;28;20481;-80
2023/01/20 07:11:38;;;;;;;17.43;9.30;;;0.50;99.90;;;;;;4195164;28;20460;-79
2023/01/20 07:13:40;;;;;;;24.17;10.10;;;0.50;99.90;;;;;;4195417;28;20481;-79
2023/01/20 07:15:42;;;;;;;23.17;9.80;;;1.40;99.90;;;;;;4195486;28;20507;-79
2023/01/20 07:17:44;;;;;;;23.97;10.43;;;0.50;99.90;;;;;;4195416;28;20485;-79
2023/01/20 07:19:46;;;;;;;27.20;11.00;;;0.50;99.90;;;;;;4195969;28;20460;-79
2023/01/20 07:21:48;;;;;;;24.57;10.50;;;0.50;99.90;;;;;;4193811;28;20461;-79
2023/01/20 07:23:51;;;;;;;24.40;10.53;;;0.50;99.90;;;;;;4196178;28;20483;-79
2023/01/20 07:26:00;;;;;;;26.53;10.73;;;0.40;99.90;;;;;;4197465;28;20463;-79
2023/01/20 07:28:02;;;;;;;24.57;10.93;;;0.40;99.90;;;;;;4193543;28;20439;-79
2023/01/20 07:30:05;;;;;;;22.37;10.13;;;0.50;99.90;;;;;;4195399;28;20490;-79
2023/01/20 07:32:07;;;;;;;24.53;10.70;;;0.40;99.90;;;;;;4198385;28;20475;-79
2023/01/20 07:34:09;;;;;;;26.47;11.30;;;0.40;99.90;;;;;;4198136;28;20485;-79
2023/01/20 07:36:13;;;;;;;22.53;10.27;;;0.40;99.90;;;;;;4198360;28;20469;-79
2023/01/20 07:38:15;;;;;;;23.17;9.87;;;0.40;99.90;;;;;;4186177;28;20460;-79
2023/01/20 07:40:18;;;;;;;25.40;10.67;;;0.40;99.90;;;;;;4201459;28;20486;-79
2023/01/20 07:42:20;;;;;;;32.67;11.53;;;0.40;99.90;;;;;;4198310;28;20456;-79
2023/01/20 07:44:22;;;;;;;23.23;10.10;;;0.50;99.90;;;;;;4188501;28;20486;-79
2023/01/20 07:46:24;;;;;;;26.37;11.03;;;0.50;99.90;;;;;;4196648;28;20547;-79
2023/01/20 07:48:27;;;;;;;27.37;10.70;;;0.50;99.90;;;;;;4194249;28;20457;-79
2023/01/20 07:50:30;;;;;;;26.50;10.73;;;0.40;99.90;;;;;;4198416;28;20449;-79
2023/01/20 07:52:32;;;;;;;29.63;10.73;;;0.40;99.90;;;;;;4213091;28;20520;-79
2023/01/20 07:54:33;;;;;;;21.37;10.50;;;0.40;99.90;;;;;;4197684;28;20497;-79
2023/01/20 07:56:37;;;;;;;32.17;11.83;;;0.40;99.90;;;;;;4197390;28;20457;-79
2023/01/20 07:58:39;;;;;;;21.70;10.53;;;0.40;99.90;;;;;;4195328;28;20986;-79
2023/01/20 08:00:41;;;;;;;23.53;11.27;;;0.40;99.90;;;;;;4199723;28;20514;-79
2023/01/20 08:02:43;;;;;;;22.00;9.70;;;0.40;99.90;;;;;;4196081;28;20453;-79
2023/01/20 08:04:45;;;;;;;20.30;10.03;;;0.40;99.90;;;;;;4196237;28;20517;-79
2023/01/20 08:06:47;;;;;;;24.30;10.23;;;0.60;99.90;;;;;;4194330;28;20468;-79
2023/01/20 08:08:49;;;;;;;20.23;9.67;;;0.40;99.90;;;;;;4195923;28;20968;-78
2023/01/20 08:10:54;;;;;;;25.63;10.83;;;0.40;99.90;;;;;;4189669;28;20500;-79
2023/01/20 08:12:58;;;;;;;26.00;10.40;;;0.60;99.90;;;;;;4196054;28;20451;-79
2023/01/20 08:15:00;;;;;;;27.00;10.57;;;0.40;99.90;;;;;;4193357;28;20469;-78
2023/01/20 08:17:02;;;;;;;24.13;10.73;;;0.40;99.90;;;;;;4189147;28;20921;-79
2023/01/20 08:19:04;;;;;;;22.80;10.80;;;0.50;99.90;;;;;;4195136;28;20449;-79
2023/01/20 08:21:07;;;;;;;21.70;9.63;;;0.50;99.90;;;;;;4196117;28;20509;-79
2023/01/20 08:23:09;;;;;;;25.33;10.63;;;0.50;99.90;;;;;;4199920;28;20454;-79
2023/01/20 08:25:11;;;;;;;26.73;11.37;;;0.50;99.90;;;;;;4195103;28;20487;-79
2023/01/20 08:27:14;;;;;;;25.17;10.97;;;0.50;99.90;;;;;;4189390;28;20487;-79
2023/01/20 08:29:17;;;;;;;22.57;10.80;;;0.50;99.90;;;;;;4193263;28;20489;-79
2023/01/20 08:31:21;;;;;;;24.70;10.20;;;0.50;99.90;;;;;;4194446;28;20468;-78
2023/01/20 08:33:23;;;;;;;30.27;12.73;;;0.50;99.90;;;;;;4192783;28;20902;-79
2023/01/20 08:35:25;;;;;;;23.73;11.07;;;0.50;99.90;;;;;;4194489;28;20484;-79
2023/01/20 08:37:27;;;;;;;23.23;10.53;;;0.50;99.90;;;;;;4196989;28;20833;-78
2023/01/20 08:39:30;;;;;;;23.33;11.23;;;0.50;99.90;;;;;;4198443;28;20444;-78
2023/01/20 08:41:35;;;;;;;25.90;10.77;;;0.50;99.90;;;;;;4184044;28;20883;-78
2023/01/20 08:43:37;;;;;;;21.67;10.47;;;0.50;99.90;;;;;;4191943;28;21385;-78
2023/01/20 08:45:42;;;;;;;21.03;10.37;;;0.50;99.90;;;;;;4195185;28;20491;-78
2023/01/20 08:47:44;;;;;;;25.87;11.40;;;0.50;99.90;;;;;;4193350;28;20951;-78
2023/01/20 08:49:46;;;;;;;23.70;11.27;;;0.50;99.90;;;;;;4189084;28;20471;-78
2023/01/20 08:51:49;;;;;;;26.90;12.63;;;0.50;99.90;;;;;;4194620;28;20539;-79
2023/01/20 08:53:51;;;;;;;25.37;11.93;;;0.50;99.90;;;;;;4191226;28;20477;-78
2023/01/20 08:55:57;;;;;;;26.10;11.60;;;0.50;99.90;;;;;;4192580;28;20464;-78
2023/01/20 08:58:00;;;;;;;24.73;11.67;;;0.50;99.90;;;;;;4197058;28;20530;-78
2023/01/20 09:00:05;;;;;;;24.57;10.90;;;0.50;99.90;;;;;;4197361;28;20435;-78
2023/01/20 09:02:10;;;;;;;22.40;10.87;;;0.50;99.90;;;;;;4198013;28;20820;-78
2023/01/20 09:04:12;;;;;;;27.73;12.23;;;0.50;99.90;;;;;;4196465;28;20980;-78
2023/01/20 09:06:14;;;;;;;25.57;12.07;;;0.60;99.90;;;;;;4198472;28;20910;-78
2023/01/20 09:08:17;;;;;;;26.70;11.40;;;0.50;99.90;;;;;;4198566;28;20543;-78
2023/01/20 09:10:19;;;;;;;25.67;11.60;;;0.60;99.90;;;;;;4194173;28;20482;-79
2023/01/20 09:12:21;;;;;;;26.37;12.03;;;0.60;99.90;;;;;;4193642;28;20451;-78
2023/01/20 09:14:25;;;;;;;23.20;10.90;;;0.70;99.90;;;;;;4195634;28;20471;-78
2023/01/20 09:16:26;;;;;;;26.93;11.33;;;0.70;99.90;;;;;;4192093;28;20498;-78
2023/01/20 09:18:30;;;;;;;24.90;10.47;;;0.80;99.90;;;;;;4195477;28;20531;-78
2023/01/20 09:20:32;;;;;;;20.90;10.60;;;0.90;99.90;;;;;;4194514;28;20442;-78
2023/01/20 09:22:34;;;;;;;21.07;10.13;;;0.90;99.90;;;;;;4194321;28;20494;-78
2023/01/20 09:24:36;;;;;;;20.17;10.63;;;1.00;99.90;;;;;;4193492;28;20478;-78
2023/01/20 09:26:40;;;;;;;20.93;10.13;;;1.10;99.90;;;;;;4192955;28;20449;-78
2023/01/20 09:28:45;;;;;;;19.17;9.53;;;1.10;99.90;;;;;;4193679;28;20936;-78
2023/01/20 09:30:47;;;;;;;24.17;10.73;;;1.20;99.90;;;;;;4197108;28;20480;-78
2023/01/20 09:32:51;;;;;;;22.90;11.20;;;1.20;99.90;;;;;;4193961;28;20943;-78
2023/01/20 09:34:55;;;;;;;21.23;10.17;;;1.30;99.90;;;;;;4187772;28;20536;-78
2023/01/20 09:43:52;;;;;;;22.57;10.30;;;1.40;99.90;;;;;;4198183;28;20930;-78
2023/01/20 09:44:28;;;;;;;23.87;11.23;;;1.50;99.90;;;;;;4198391;28;20960;-78
2023/01/20 09:46:40;;;;;;;23.33;10.37;;;1.50;99.90;;;;;;4214324;28;20870;-78
2023/01/20 09:53:49;;;;;;;27.33;12.60;;;1.60;99.90;;;;;;4197445;28;20483;-78
2023/01/20 09:55:53;;;;;;;25.03;11.50;;;1.60;99.90;;;;;;4199091;28;20455;-78
2023/01/20 09:58:01;;;;;;;23.27;11.13;;;1.80;99.90;;;;;;4201005;28;20524;-78
2023/01/20 10:00:08;;;;;;;21.30;11.47;;;1.70;99.90;;;;;;4203162;28;20458;-78
2023/01/20 10:02:17;;;;;;;23.73;11.07;;;1.70;99.90;;;;;;4203845;28;20454;-78
2023/01/20 10:04:24;;;;;;;27.77;11.43;;;1.80;99.90;;;;;;4202627;28;20474;-78
2023/01/20 10:06:33;;;;;;;22.93;10.87;;;1.90;99.90;;;;;;4197902;28;20550;-78
2023/01/20 10:08:45;;;;;;;19.93;10.27;;;1.90;99.90;;;;;;4197856;28;20937;-77
2023/01/20 10:10:52;;;;;;;19.97;10.53;;;2.00;99.90;;;;;;4198273;28;20493;-78
2023/01/20 10:13:00;;;;;;;19.37;10.53;;;2.00;99.90;;;;;;4198921;28;20808;-78
2023/01/20 10:15:08;;;;;;;23.20;10.83;;;2.00;99.90;;;;;;4198221;28;20520;-78
2023/01/20 10:17:15;;;;;;;22.70;10.63;;;2.00;99.90;;;;;;4192870;28;20541;-78
2023/01/20 10:19:26;;;;;;;23.53;11.60;;;2.10;99.90;;;;;;4195632;28;20497;-78
2023/01/20 10:21:35;;;;;;;23.30;11.03;;;2.10;99.90;;;;;;4198546;28;20447;-78
2023/01/20 10:23:44;;;;;;;24.73;10.97;;;2.20;99.90;;;;;;4192727;28;20514;-78
2023/01/20 10:25:50;;;;;;;22.83;10.80;;;2.20;99.90;;;;;;4197134;28;20494;-77
2023/01/20 10:27:56;;;;;;;19.67;9.97;;;2.20;99.90;;;;;;4195519;28;20447;-76
2023/01/20 10:30:07;;;;;;;21.40;10.10;;;2.50;99.90;;;;;;4198982;28;21257;-78
2023/01/20 10:32:19;;;;;;;19.60;10.33;;;2.30;99.90;;;;;;4198806;28;20490;-78
2023/01/20 10:34:21;;;;;;;20.27;9.80;;;2.40;99.90;;;;;;4196825;28;21008;-78
2023/01/20 10:36:27;;;;;;;19.67;10.00;;;2.40;99.90;;;;;;4198283;28;20451;-79
2023/01/20 10:38:42;;;;;;;22.93;10.33;;;2.40;99.90;;;;;;4196842;28;20463;-78
2023/01/20 10:40:49;;;;;;;22.60;10.90;;;2.50;99.90;;;;;;4197735;28;20995;-78
2023/01/20 10:42:56;;;;;;;29.90;10.77;;;2.50;99.90;;;;;;4199753;28;20497;-79
2023/01/20 10:44:58;;;;;;;19.60;10.17;;;2.60;99.90;;;;;;4195392;28;20514;-78
2023/01/20 10:47:24;;;;;;;22.60;11.17;;;2.60;99.90;;;;;;4196105;28;20523;-78
2023/01/20 10:49:57;;;;;;;21.60;10.23;;;2.60;99.90;;;;;;4195928;28;20452;-78
2023/01/20 10:52:18;;;;;;;23.17;10.90;;;2.70;99.90;;;;;;4195358;28;20460;-77
2023/01/20 10:54:29;;;;;;;23.00;11.07;;;2.70;99.90;;;;;;4194420;28;20467;-78